createdAt,value
2018-11-04T00:00:20.252Z,22.47
2018-11-04T00:02:50.154Z,23.10
2018-11-04T00:05:19.817Z,21.87
2018-11-04T00:07:50.446Z,25.17
2018-11-04T00:10:20.052Z,26.93
2018-11-04T00:12:49.616Z,25.47
2018-11-04T00:15:19.207Z,30.37
2018-11-04T00:17:48.722Z,26.93
2018-11-04T00:20:18.307Z,28.67
2018-11-04T00:22:47.894Z,30.63
2018-11-04T00:25:17.518Z,30.00
2018-11-04T00:27:47.022Z,30.17
2018-11-04T00:30:16.782Z,31.70
2018-11-04T00:32:46.366Z,31.10
2018-11-04T00:35:15.954Z,33.97
2018-11-04T00:37:45.506Z,43.70
2018-11-04T00:40:15.050Z,61.83
2018-11-04T00:42:44.592Z,67.43
2018-11-04T00:45:14.196Z,72.60
2018-11-04T00:47:43.887Z,74.97
2018-11-04T00:50:14.870Z,73.13
2018-11-04T00:52:44.689Z,73.63
2018-11-04T00:55:14.579Z,75.67
2018-11-04T00:57:44.103Z,77.17
2018-11-04T01:00:16.832Z,84.80
2018-11-04T01:02:47.454Z,84.57
2018-11-04T01:05:17.391Z,81.67
2018-11-04T01:07:46.981Z,73.63
2018-11-04T01:10:16.585Z,79.70
2018-11-04T01:12:46.305Z,80.33
2018-11-04T01:15:16.175Z,83.13
2018-11-04T01:17:45.720Z,74.63
2018-11-04T01:20:16.450Z,75.77
2018-11-04T01:22:46.534Z,76.50
2018-11-04T01:25:16.077Z,73.80
2018-11-04T01:27:45.666Z,72.63
2018-11-04T01:30:15.888Z,76.87
2018-11-04T01:32:45.588Z,78.17
2018-11-04T01:35:15.127Z,79.53
2018-11-04T01:37:44.681Z,77.70
2018-11-04T01:40:14.261Z,74.37
2018-11-04T01:42:43.782Z,72.07
2018-11-04T01:45:13.329Z,73.40
2018-11-04T01:47:42.862Z,70.97
2018-11-04T01:50:14.084Z,71.27
2018-11-04T01:52:43.683Z,71.93
2018-11-04T01:55:13.476Z,65.53
2018-11-04T01:57:43.032Z,64.80
2018-11-04T02:00:16.258Z,72.23
2018-11-04T02:02:46.370Z,65.87
2018-11-04T02:05:16.210Z,63.70
2018-11-04T02:07:45.695Z,63.97
2018-11-04T02:10:15.704Z,62.37
2018-11-04T02:12:45.234Z,61.17
2018-11-04T02:15:14.875Z,57.83
2018-11-04T02:17:44.449Z,58.30
2018-11-04T02:20:14.386Z,51.70
2018-11-04T02:22:44.045Z,60.30
2018-11-04T02:25:14.360Z,51.87
2018-11-04T02:27:44.307Z,59.20
2018-11-04T02:30:17.506Z,58.23
2018-11-04T02:32:47.490Z,57.57
2018-11-04T02:35:17.187Z,56.87
2018-11-04T02:37:46.795Z,57.93
2018-11-04T02:40:16.375Z,56.47
2018-11-04T02:42:45.875Z,59.53
2018-11-04T02:45:15.496Z,54.77
2018-11-04T02:47:45.060Z,59.70
2018-11-04T02:50:14.619Z,55.67
2018-11-04T02:52:44.137Z,60.13
2018-11-04T02:55:13.719Z,57.17
2018-11-04T02:57:43.239Z,57.27
2018-11-04T03:00:14.425Z,57.57
2018-11-04T03:02:44.028Z,56.30
2018-11-04T03:05:13.540Z,51.47
2018-11-04T03:07:43.603Z,56.10
2018-11-04T03:10:14.226Z,56.03
2018-11-04T03:12:43.782Z,52.37
2018-11-04T03:15:13.300Z,57.03
2018-11-04T03:17:42.856Z,54.47
2018-11-04T03:20:12.409Z,52.57
2018-11-04T03:22:41.971Z,44.33
2018-11-04T03:25:11.575Z,40.23
2018-11-04T03:27:41.103Z,35.43
2018-11-04T03:30:10.903Z,37.77
2018-11-04T03:32:40.614Z,34.70
2018-11-04T03:35:10.151Z,31.73
2018-11-04T03:37:39.682Z,30.47
2018-11-04T03:40:10.713Z,35.20
2018-11-04T03:42:40.561Z,35.27
2018-11-04T03:45:10.664Z,27.27
2018-11-04T03:47:40.436Z,36.87
2018-11-04T03:50:11.468Z,36.47
2018-11-04T03:52:41.097Z,31.87
2018-11-04T03:55:10.662Z,31.00
2018-11-04T03:57:40.214Z,26.83
2018-11-04T04:00:11.950Z,28.27
2018-11-04T04:02:42.343Z,25.13
2018-11-04T04:05:12.268Z,27.07
2018-11-04T04:07:41.847Z,25.03
2018-11-04T04:10:11.445Z,23.77
2018-11-04T04:12:41.001Z,20.17
2018-11-04T04:15:11.550Z,18.03
2018-11-04T04:17:41.339Z,18.80
2018-11-04T04:20:10.917Z,17.03
2018-11-04T04:22:40.510Z,18.20
2018-11-04T04:25:10.223Z,20.20
2018-11-04T04:27:39.770Z,21.77
2018-11-04T04:30:10.874Z,15.50
2018-11-04T04:32:40.423Z,17.13
2018-11-04T04:35:10.801Z,16.83
2018-11-04T04:37:40.875Z,19.13
2018-11-04T04:40:10.703Z,21.07
2018-11-04T04:42:40.191Z,24.00
2018-11-04T04:45:09.765Z,19.40
2018-11-04T04:47:39.331Z,18.77
2018-11-04T04:50:08.894Z,23.03
2018-11-04T04:52:38.438Z,22.83
2018-11-04T04:55:08.027Z,28.83
2018-11-04T04:57:37.567Z,18.03
2018-11-04T05:00:07.822Z,19.60
2018-11-04T05:02:37.402Z,23.77
2018-11-04T05:05:07.213Z,17.60
2018-11-04T05:07:36.707Z,26.87
2018-11-04T05:10:06.859Z,21.27
2018-11-04T05:12:36.623Z,15.70
2018-11-04T05:15:07.448Z,21.27
2018-11-04T05:17:37.117Z,19.83
2018-11-04T05:20:06.836Z,16.87
2018-11-04T05:22:36.350Z,23.10
2018-11-04T05:25:06.421Z,39.10
2018-11-04T05:27:35.957Z,34.20
2018-11-04T05:30:07.512Z,29.60
2018-11-04T05:32:37.005Z,29.47
2018-11-04T05:35:07.035Z,30.87
2018-11-04T05:37:37.004Z,24.30
2018-11-04T05:40:07.299Z,27.37
2018-11-04T05:42:36.795Z,21.90
2018-11-04T05:45:07.240Z,22.50
2018-11-04T05:47:36.820Z,25.03
2018-11-04T05:50:06.916Z,27.17
2018-11-04T05:52:36.838Z,29.23
2018-11-04T05:55:07.299Z,30.10
2018-11-04T05:57:36.856Z,34.87
2018-11-04T06:00:07.687Z,32.20
2018-11-04T06:02:37.190Z,29.73
2018-11-04T06:05:08.058Z,26.57
2018-11-04T06:07:37.570Z,28.60
2018-11-04T06:10:07.570Z,26.73
2018-11-04T06:12:37.606Z,31.53
2018-11-04T06:15:07.962Z,30.67
2018-11-04T06:17:37.547Z,30.47
2018-11-04T06:20:08.308Z,33.53
2018-11-04T06:22:37.862Z,32.57
2018-11-04T06:25:07.560Z,35.50
2018-11-04T06:27:37.091Z,32.20
2018-11-04T06:30:08.486Z,36.73
2018-11-04T06:32:38.078Z,38.60
2018-11-04T06:35:08.103Z,35.30
2018-11-04T06:37:37.906Z,38.13
2018-11-04T06:40:08.258Z,39.43
2018-11-04T06:42:37.843Z,34.03
2018-11-04T06:45:08.351Z,38.70
2018-11-04T06:47:38.038Z,44.63
2018-11-04T06:50:09.644Z,37.90
2018-11-04T06:52:39.167Z,38.90
2018-11-04T06:55:09.327Z,43.47
2018-11-04T06:57:39.072Z,40.80
2018-11-04T07:00:10.376Z,40.10
2018-11-04T07:02:40.192Z,40.27
2018-11-04T07:05:09.748Z,43.93
2018-11-04T07:07:39.328Z,44.03
2018-11-04T07:10:09.536Z,40.73
2018-11-04T07:12:39.186Z,43.13
2018-11-04T07:15:08.744Z,43.67
2018-11-04T07:17:38.471Z,41.47
2018-11-04T07:20:08.826Z,48.67
2018-11-04T07:22:38.630Z,45.03
2018-11-04T07:25:08.462Z,44.30
2018-11-04T07:27:38.019Z,46.53
2018-11-04T07:30:09.547Z,45.40
2018-11-04T07:32:39.094Z,46.40
2018-11-04T07:35:09.150Z,43.47
2018-11-04T07:37:38.824Z,44.70
2018-11-04T07:40:09.174Z,41.13
2018-11-04T07:42:39.190Z,43.57
2018-11-04T07:45:09.472Z,45.00
2018-11-04T07:47:39.023Z,47.80
2018-11-04T07:50:10.815Z,40.93
2018-11-04T07:52:40.362Z,46.17
2018-11-04T07:55:10.252Z,37.50
2018-11-04T07:57:41.320Z,42.03
2018-11-04T08:00:13.369Z,34.43
2018-11-04T08:02:43.265Z,36.23
2018-11-04T08:05:13.127Z,39.20
2018-11-04T08:07:42.698Z,38.73
2018-11-04T08:10:13.465Z,34.77
2018-11-04T08:12:43.046Z,37.10
2018-11-04T08:15:12.587Z,38.70
2018-11-04T08:17:42.157Z,34.30
2018-11-04T08:20:11.728Z,33.53
2018-11-04T08:22:41.553Z,32.90
2018-11-04T08:25:11.079Z,30.37
2018-11-04T08:27:40.649Z,33.50
2018-11-04T08:30:10.336Z,29.27
2018-11-04T08:32:39.870Z,29.67
2018-11-04T08:35:09.376Z,28.30
2018-11-04T08:37:38.937Z,26.77
2018-11-04T08:40:08.727Z,30.73
2018-11-04T08:42:38.145Z,28.33
2018-11-04T08:45:08.063Z,24.67
2018-11-04T08:47:37.623Z,25.17
2018-11-04T08:50:08.566Z,26.73
2018-11-04T08:52:38.161Z,26.13
2018-11-04T08:55:08.747Z,25.10
2018-11-04T08:57:38.348Z,23.50
2018-11-04T09:00:10.091Z,21.33
2018-11-04T09:02:39.604Z,22.90
2018-11-04T09:05:09.561Z,20.53
2018-11-04T09:07:39.175Z,22.07
2018-11-04T09:10:11.824Z,24.77
2018-11-04T09:12:41.459Z,23.57
2018-11-04T09:15:11.503Z,21.37
2018-11-04T09:17:41.115Z,18.60
2018-11-04T09:20:12.616Z,16.77
2018-11-04T09:22:43.069Z,16.33
2018-11-04T09:25:13.164Z,18.00
2018-11-04T09:27:42.704Z,17.37
2018-11-04T09:30:14.574Z,15.33
2018-11-04T09:32:44.132Z,15.77
2018-11-04T09:35:13.825Z,16.40
2018-11-04T09:37:43.327Z,16.73
2018-11-04T09:40:13.673Z,14.60
2018-11-04T09:42:43.194Z,16.03
2018-11-04T09:45:12.781Z,12.60
2018-11-04T09:47:42.339Z,13.63
2018-11-04T09:50:12.514Z,13.87
2018-11-04T09:52:42.018Z,13.90
2018-11-04T09:55:12.397Z,16.30
2018-11-04T09:57:41.942Z,14.37
2018-11-04T10:00:12.662Z,13.30
2018-11-04T10:02:42.218Z,13.57
2018-11-04T10:05:12.187Z,13.73
2018-11-04T10:07:41.773Z,15.07
2018-11-04T10:10:13.750Z,14.67
2018-11-04T10:12:44.196Z,15.23
2018-11-04T10:15:13.772Z,18.03
2018-11-04T10:17:43.338Z,17.80
2018-11-04T10:20:13.752Z,16.37
2018-11-04T10:22:42.963Z,16.33
2018-11-04T10:25:13.351Z,17.87
2018-11-04T10:27:43.121Z,17.40
2018-11-04T10:30:15.114Z,16.27
2018-11-04T10:32:44.651Z,15.23
2018-11-04T10:35:14.241Z,15.47
2018-11-04T10:37:44.105Z,12.80
2018-11-04T10:40:14.517Z,13.90
2018-11-04T10:42:44.096Z,13.37
2018-11-04T10:45:13.608Z,12.20
2018-11-04T10:47:43.166Z,12.03
2018-11-04T10:50:13.404Z,14.57
2018-11-04T10:52:42.976Z,14.23
2018-11-04T10:55:12.515Z,17.17
2018-11-04T10:57:42.105Z,12.77
2018-11-04T11:00:16.862Z,14.20
2018-11-04T11:02:46.692Z,13.33
2018-11-04T11:05:16.471Z,13.33
2018-11-04T11:07:46.236Z,13.80
2018-11-04T11:10:15.738Z,13.20
2018-11-04T11:12:45.283Z,14.27
2018-11-04T11:15:14.792Z,14.87
2018-11-04T11:17:44.416Z,13.83
2018-11-04T11:20:13.928Z,13.50
2018-11-04T11:22:43.807Z,13.63
2018-11-04T11:25:13.190Z,13.67
2018-11-04T11:27:42.734Z,14.87
2018-11-04T11:30:12.401Z,14.40
2018-11-04T11:32:41.862Z,14.30
2018-11-04T11:35:11.363Z,14.63
2018-11-04T11:37:40.944Z,14.80
2018-11-04T11:40:10.842Z,15.70
2018-11-04T11:42:40.484Z,14.33
2018-11-04T11:45:10.541Z,14.67
2018-11-04T11:47:40.114Z,14.97
2018-11-04T11:50:09.804Z,14.90
2018-11-04T11:52:39.453Z,15.57
2018-11-04T11:55:09.154Z,14.43
2018-11-04T11:57:38.719Z,13.97
2018-11-04T12:00:09.703Z,12.80
2018-11-04T12:02:39.953Z,11.97
2018-11-04T12:05:09.929Z,12.37
2018-11-04T12:07:39.591Z,12.93
2018-11-04T12:10:11.339Z,8.87
2018-11-04T12:12:40.911Z,8.40
2018-11-04T12:15:11.886Z,9.43
2018-11-04T12:17:41.460Z,9.67
2018-11-04T12:20:11.935Z,8.27
2018-11-04T12:22:41.578Z,11.60
2018-11-04T12:25:12.318Z,10.53
2018-11-04T12:27:42.026Z,9.10
2018-11-04T12:30:13.496Z,9.87
2018-11-04T12:32:43.042Z,8.80
2018-11-04T12:35:13.638Z,9.50
2018-11-04T12:37:43.384Z,9.83
2018-11-04T12:40:13.686Z,11.67
2018-11-04T12:42:43.167Z,10.80
2018-11-04T12:45:13.362Z,10.23
2018-11-04T12:47:43.043Z,12.90
2018-11-04T12:50:13.317Z,12.00
2018-11-04T12:52:42.971Z,9.53
2018-11-04T12:55:12.574Z,9.47
2018-11-04T12:57:42.119Z,10.93
2018-11-04T13:00:14.423Z,8.80
2018-11-04T13:02:44.652Z,6.80
2018-11-04T13:05:14.270Z,7.70
2018-11-04T13:07:43.810Z,7.60
2018-11-04T13:10:14.303Z,7.70
2018-11-04T13:12:43.810Z,7.63
2018-11-04T13:15:14.483Z,6.70
2018-11-04T13:17:44.377Z,8.53
2018-11-04T13:20:13.898Z,7.93
2018-11-04T13:22:43.446Z,9.00
2018-11-04T13:25:12.977Z,7.60
2018-11-04T13:27:42.543Z,6.00
2018-11-04T13:30:13.259Z,6.17
2018-11-04T13:32:42.842Z,6.83
2018-11-04T13:35:12.352Z,6.17
2018-11-04T13:37:41.892Z,7.20
2018-11-04T13:40:12.283Z,8.83
2018-11-04T13:42:42.186Z,6.43
2018-11-04T13:45:12.192Z,6.40
2018-11-04T13:47:41.728Z,7.23
2018-11-04T13:50:12.787Z,6.37
2018-11-04T13:52:42.684Z,5.83
2018-11-04T13:55:12.268Z,6.30
2018-11-04T13:57:41.848Z,6.00
2018-11-04T14:00:15.365Z,6.23
2018-11-04T14:02:46.525Z,6.43
2018-11-04T14:05:16.066Z,6.13
2018-11-04T14:07:45.643Z,6.33
2018-11-04T14:10:16.175Z,6.17
2018-11-04T14:12:46.324Z,7.00
2018-11-04T14:15:16.006Z,5.90
2018-11-04T14:17:45.667Z,6.10
2018-11-04T14:20:15.211Z,6.07
2018-11-04T14:22:44.770Z,6.13
2018-11-04T14:25:14.287Z,8.43
2018-11-04T14:27:43.871Z,9.87
2018-11-04T14:30:15.398Z,10.80
2018-11-04T14:32:45.100Z,8.77
2018-11-04T14:35:14.656Z,7.20
2018-11-04T14:37:44.155Z,8.50
2018-11-04T14:40:14.928Z,9.43
2018-11-04T14:42:45.171Z,9.63
2018-11-04T14:45:14.815Z,10.20
2018-11-04T14:47:44.341Z,13.13
2018-11-04T14:50:15.233Z,11.17
2018-11-04T14:52:44.872Z,11.90
2018-11-04T14:55:14.416Z,11.80
2018-11-04T14:57:43.992Z,9.73
2018-11-04T15:00:15.566Z,9.93
2018-11-04T15:02:45.139Z,10.10
2018-11-04T15:05:14.657Z,10.87
2018-11-04T15:07:44.220Z,12.07
2018-11-04T15:10:14.786Z,11.80
2018-11-04T15:12:44.603Z,13.43
2018-11-04T15:15:15.696Z,13.27
2018-11-04T15:17:45.256Z,10.60
2018-11-04T15:20:14.783Z,9.83
2018-11-04T15:22:51.669Z,9.77
2018-11-04T15:25:22.179Z,7.97
2018-11-04T15:27:51.772Z,8.87
2018-11-04T15:30:21.307Z,7.40
2018-11-04T15:32:50.910Z,11.17
2018-11-04T15:35:20.404Z,9.10
2018-11-04T15:37:49.961Z,7.90
2018-11-04T15:40:19.570Z,9.83
2018-11-04T15:42:49.088Z,9.03
2018-11-04T15:45:18.646Z,8.17
2018-11-04T15:47:48.152Z,8.40
2018-11-04T15:50:18.856Z,9.00
2018-11-04T15:52:49.020Z,10.87
2018-11-04T15:55:18.558Z,13.20
2018-11-04T15:57:48.113Z,11.07
2018-11-04T16:00:17.614Z,14.50
2018-11-04T16:02:47.230Z,14.03
2018-11-04T16:05:16.743Z,13.87
2018-11-04T16:07:46.284Z,15.63
2018-11-04T16:10:15.847Z,14.53
2018-11-04T16:12:45.399Z,15.50
2018-11-04T16:15:15.571Z,18.90
2018-11-04T16:17:45.542Z,14.93
2018-11-04T16:20:15.961Z,15.43
2018-11-04T16:22:46.195Z,14.37
2018-11-04T16:25:15.745Z,17.63
2018-11-04T16:27:45.303Z,14.90
2018-11-04T16:30:15.576Z,12.33
2018-11-04T16:32:45.164Z,12.73
2018-11-04T16:35:15.393Z,13.03
2018-11-04T16:37:45.688Z,14.27
2018-11-04T16:40:15.203Z,12.33
2018-11-04T16:42:44.763Z,13.23
2018-11-04T16:45:15.533Z,14.07
2018-11-04T16:47:45.143Z,15.20
2018-11-04T16:50:15.237Z,13.87
2018-11-04T16:52:45.264Z,15.53
2018-11-04T16:55:15.074Z,17.67
2018-11-04T16:57:44.948Z,14.83
2018-11-04T17:00:14.459Z,15.47
2018-11-04T17:02:44.020Z,15.83
2018-11-04T17:05:14.005Z,12.70
2018-11-04T17:07:43.839Z,14.57
2018-11-04T17:10:13.357Z,13.17
2018-11-04T17:12:42.951Z,15.27
2018-11-04T17:15:13.835Z,12.77
2018-11-04T17:17:43.635Z,12.73
2018-11-04T17:20:16.253Z,11.90
2018-11-04T17:22:46.111Z,11.47
2018-11-04T17:25:15.636Z,11.90
2018-11-04T17:27:45.290Z,14.60
2018-11-04T17:30:16.638Z,14.07
2018-11-04T17:32:46.450Z,13.73
2018-11-04T17:35:16.628Z,11.67
2018-11-04T17:37:46.530Z,12.80
2018-11-04T17:40:16.756Z,11.47
2018-11-04T17:42:46.432Z,12.70
2018-11-04T17:45:16.920Z,12.63
2018-11-04T17:47:46.976Z,15.20
2018-11-04T17:50:17.935Z,13.57
2018-11-04T17:52:47.559Z,12.03
2018-11-04T17:55:17.253Z,11.70
2018-11-04T17:57:46.980Z,13.10
2018-11-04T18:00:17.337Z,11.23
2018-11-04T18:02:47.039Z,11.97
2018-11-04T18:05:16.597Z,13.87
2018-11-04T18:07:46.183Z,13.50
2018-11-04T18:10:16.347Z,14.23
2018-11-04T18:12:45.924Z,13.77
2018-11-04T18:15:15.671Z,14.73
2018-11-04T18:17:45.382Z,18.40
2018-11-04T18:20:14.914Z,15.97
2018-11-04T18:22:44.460Z,14.20
2018-11-04T18:25:14.101Z,12.83
2018-11-04T18:27:43.602Z,14.07
2018-11-04T18:30:14.755Z,35.03
2018-11-04T18:32:44.788Z,29.00
2018-11-04T18:35:14.411Z,19.47
2018-11-04T18:37:44.031Z,19.90
2018-11-04T18:40:15.935Z,21.50
2018-11-04T18:42:45.993Z,25.23
2018-11-04T18:45:16.576Z,21.53
2018-11-04T18:47:46.188Z,23.33
2018-11-04T18:50:16.424Z,21.03
2018-11-04T18:52:46.160Z,27.37
2018-11-04T18:55:15.635Z,24.27
2018-11-04T18:57:45.404Z,25.03
2018-11-04T19:00:17.212Z,26.43
2018-11-04T19:02:47.452Z,21.27
2018-11-04T19:05:17.087Z,20.13
2018-11-04T19:07:46.778Z,24.77
2018-11-04T19:10:17.671Z,21.13
2018-11-04T19:12:47.347Z,23.07
2018-11-04T19:15:16.917Z,26.03
2018-11-04T19:17:46.480Z,25.83
2018-11-04T19:20:16.392Z,26.93
2018-11-04T19:22:45.966Z,33.77
2018-11-04T19:25:16.180Z,36.77
2018-11-04T19:27:45.788Z,27.67
2018-11-04T19:30:16.498Z,36.77
2018-11-04T19:32:46.422Z,31.13
2018-11-04T19:35:16.936Z,29.50
2018-11-04T19:37:46.513Z,30.03
2018-11-04T19:40:16.691Z,26.10
2018-11-04T19:42:46.305Z,26.43
2018-11-04T19:45:15.871Z,26.23
2018-11-04T19:47:45.429Z,23.77
2018-11-04T19:50:15.020Z,25.47
2018-11-04T19:52:44.522Z,23.97
2018-11-04T19:55:14.303Z,26.43
2018-11-04T19:57:43.786Z,23.40
2018-11-04T20:00:13.883Z,22.57
2018-11-04T20:02:43.409Z,21.67
2018-11-04T20:05:13.525Z,22.10
2018-11-04T20:07:43.240Z,22.57
2018-11-04T20:10:15.423Z,23.33
2018-11-04T20:12:50.086Z,22.27
2018-11-04T20:15:19.612Z,21.97
2018-11-04T20:17:49.669Z,26.47
2018-11-04T20:20:23.620Z,23.53
2018-11-04T20:22:53.272Z,24.67
2018-11-04T20:25:27.799Z,24.93
2018-11-04T20:27:57.365Z,23.77
2018-11-04T20:30:26.930Z,26.83
2018-11-04T20:33:01.593Z,24.67
2018-11-04T20:35:31.188Z,22.97
2018-11-04T20:38:00.721Z,26.13
2018-11-04T20:40:35.238Z,23.97
2018-11-04T20:43:04.781Z,31.17
2018-11-04T20:45:34.355Z,24.47
2018-11-04T20:48:08.944Z,24.53
2018-11-04T20:50:43.598Z,22.50
2018-11-04T20:53:13.157Z,22.27
2018-11-04T20:55:47.632Z,23.27
2018-11-04T20:58:17.447Z,21.77
2018-11-04T21:00:46.814Z,24.60
2018-11-04T21:03:16.302Z,22.37
2018-11-04T21:05:45.885Z,23.73
2018-11-04T21:08:15.447Z,22.20
2018-11-04T21:10:45.031Z,21.63
2018-11-04T21:13:14.521Z,23.50
2018-11-04T21:15:44.110Z,22.20
2018-11-04T21:18:13.605Z,22.63
2018-11-04T21:20:43.193Z,21.83
2018-11-04T21:23:12.699Z,22.17
2018-11-04T21:25:42.460Z,21.37
2018-11-04T21:28:11.928Z,22.53
2018-11-04T21:30:41.467Z,22.10
2018-11-04T21:33:11.047Z,23.70
2018-11-04T21:35:40.569Z,21.40
2018-11-04T21:38:10.143Z,24.97
2018-11-04T21:40:39.719Z,23.53
2018-11-04T21:43:09.349Z,25.67
2018-11-04T21:45:38.823Z,21.17
2018-11-04T21:48:08.363Z,22.30
2018-11-04T21:50:37.870Z,21.97
2018-11-04T21:53:07.488Z,23.83
2018-11-04T21:55:37.321Z,21.17
2018-11-04T21:58:11.150Z,21.27
2018-11-04T22:00:40.802Z,22.30
2018-11-04T22:03:10.598Z,22.07
2018-11-04T22:05:40.061Z,24.10
2018-11-04T22:08:09.625Z,21.23
2018-11-04T22:10:39.257Z,21.37
2018-11-04T22:13:08.750Z,22.20
2018-11-04T22:15:38.281Z,20.80
2018-11-04T22:18:07.912Z,21.60
2018-11-04T22:20:37.424Z,22.53
2018-11-04T22:23:07.041Z,24.80
2018-11-04T22:25:36.624Z,21.63
2018-11-04T22:28:06.210Z,21.17
2018-11-04T22:30:35.700Z,21.07
2018-11-04T22:33:05.257Z,20.83
2018-11-04T22:35:34.835Z,22.23
2018-11-04T22:38:04.427Z,20.27
2018-11-04T22:40:33.927Z,22.07
2018-11-04T22:43:03.492Z,21.77
2018-11-04T22:45:32.985Z,23.80
2018-11-04T22:48:02.529Z,21.73
2018-11-04T22:50:32.050Z,26.23
2018-11-04T22:53:01.653Z,21.60
2018-11-04T22:55:31.146Z,20.27
2018-11-04T22:58:06.458Z,20.83
2018-11-04T23:00:41.091Z,20.83
2018-11-04T23:03:11.125Z,20.60
2018-11-04T23:05:40.683Z,19.67
2018-11-04T23:08:10.719Z,21.43
2018-11-04T23:10:40.289Z,19.70
2018-11-04T23:13:09.788Z,21.27
2018-11-04T23:15:39.325Z,19.43
2018-11-04T23:18:08.891Z,23.63
2018-11-04T23:20:38.419Z,18.67
2018-11-04T23:23:07.951Z,19.43
2018-11-04T23:25:37.471Z,17.40
2018-11-04T23:28:07.026Z,15.73
2018-11-04T23:30:36.563Z,16.77
2018-11-04T23:33:06.139Z,17.23
2018-11-04T23:35:35.707Z,15.60
2018-11-04T23:38:05.289Z,12.53
2018-11-04T23:40:34.796Z,11.47
2018-11-04T23:43:04.358Z,13.47
2018-11-04T23:45:33.890Z,12.20
2018-11-04T23:48:03.444Z,11.80
2018-11-04T23:50:32.934Z,13.70
2018-11-04T23:53:02.454Z,11.93
2018-11-04T23:55:31.974Z,14.30
2018-11-04T23:58:01.519Z,14.67
